Aviation Digital Data Service (ADDS)

Output produced by METARs form (1125 UTC 28 September 2021)
found at http://www.aviationweather.gov/metar/data/
 
KRNH 281120Z 2812/2912 14006KT P6SM SKC